EZY66X EGKK-EDDL
Flight info
| Callsign | EZY66X |
|---|---|
| Flight time | 1h 5m |
| Altitude | 23000 |
| Route | DVR L9 KONAN/N0406F330 DCT KOK UL607 SPI Y862 KENUM M170 NVO T857 BIKMU BIKMU1A |
| Aircraft | A20N/M-SDE2E3FGHIJ1RWXYZ/LB1 |
Departure
| Time | 2026-05-04 18:42 |
|---|---|
| Airport | London Gatwick Airport (EGKK) |
Arrival
| Time | 2026-05-04 19:47 |
|---|---|
| Airport | Düsseldorf Airport (EDDL) |
| Time | Latitude | Longitude | Altitude | Speed | Heading |
|---|---|---|---|---|---|
| 2026-05-04 18:12 | 51.15400 | -0.16403 | 211 ft | 0 kts | 79° |
| 2026-05-04 18:18 | 51.15399 | -0.16410 | 211 ft | 2 kts | 77° |
| 2026-05-04 18:18 | 51.15395 | -0.16436 | 210 ft | 2 kts | 72° |
| 2026-05-04 18:18 | 51.15389 | -0.16461 | 208 ft | 2 kts | 58° |
| 2026-05-04 18:19 | 51.15362 | -0.16480 | 207 ft | 1 kts | 345° |
| 2026-05-04 18:19 | 51.15359 | -0.16478 | 213 ft | 0 kts | 343° |
| 2026-05-04 18:21 | 51.15360 | -0.16479 | 206 ft | 3 kts | 343° |
| 2026-05-04 18:21 | 51.15424 | -0.16505 | 207 ft | 14 kts | 348° |
| 2026-05-04 18:21 | 51.15459 | -0.16591 | 206 ft | 12 kts | 252° |
| 2026-05-04 18:22 | 51.15445 | -0.16730 | 211 ft | 14 kts | 285° |
| 2026-05-04 18:22 | 51.15436 | -0.16890 | 208 ft | 16 kts | 256° |
| 2026-05-04 18:22 | 51.15411 | -0.17073 | 208 ft | 18 kts | 258° |
| 2026-05-04 18:22 | 51.15367 | -0.17263 | 210 ft | 19 kts | 253° |
| 2026-05-04 18:23 | 51.15304 | -0.17393 | 213 ft | 14 kts | 241° |
| 2026-05-04 18:23 | 51.15283 | -0.17542 | 204 ft | 5 kts | 257° |
| 2026-05-04 18:23 | 51.15281 | -0.17561 | 204 ft | 5 kts | 257° |
| 2026-05-04 18:23 | 51.15268 | -0.17652 | 208 ft | 12 kts | 258° |
| 2026-05-04 18:24 | 51.15246 | -0.17811 | 204 ft | 14 kts | 257° |
| 2026-05-04 18:24 | 51.15221 | -0.17976 | 208 ft | 14 kts | 258° |
| 2026-05-04 18:24 | 51.15202 | -0.18132 | 204 ft | 15 kts | 257° |
| 2026-05-04 18:24 | 51.15181 | -0.18283 | 207 ft | 10 kts | 258° |
| 2026-05-04 18:25 | 51.15166 | -0.18406 | 207 ft | 13 kts | 259° |
| 2026-05-04 18:25 | 51.15148 | -0.18556 | 204 ft | 15 kts | 259° |
| 2026-05-04 18:25 | 51.15129 | -0.18705 | 214 ft | 13 kts | 258° |
| 2026-05-04 18:25 | 51.15112 | -0.18840 | 213 ft | 13 kts | 259° |
| 2026-05-04 18:26 | 51.15089 | -0.18993 | 207 ft | 15 kts | 256° |
| 2026-05-04 18:26 | 51.15066 | -0.19155 | 204 ft | 14 kts | 259° |
| 2026-05-04 18:26 | 51.15051 | -0.19268 | 208 ft | 11 kts | 258° |
| 2026-05-04 18:26 | 51.15034 | -0.19395 | 210 ft | 13 kts | 257° |
| 2026-05-04 18:27 | 51.15012 | -0.19546 | 215 ft | 15 kts | 257° |
| 2026-05-04 18:27 | 51.14988 | -0.19721 | 207 ft | 16 kts | 258° |
| 2026-05-04 18:27 | 51.14966 | -0.19886 | 208 ft | 14 kts | 258° |
| 2026-05-04 18:27 | 51.14946 | -0.20034 | 209 ft | 13 kts | 257° |
| 2026-05-04 18:28 | 51.14927 | -0.20171 | 206 ft | 14 kts | 258° |
| 2026-05-04 18:28 | 51.14909 | -0.20305 | 208 ft | 12 kts | 258° |
| 2026-05-04 18:28 | 51.14890 | -0.20442 | 203 ft | 12 kts | 257° |
| 2026-05-04 18:28 | 51.14875 | -0.20547 | 206 ft | 11 kts | 257° |
| 2026-05-04 18:29 | 51.14858 | -0.20671 | 203 ft | 13 kts | 258° |
| 2026-05-04 18:29 | 51.14839 | -0.20820 | 212 ft | 14 kts | 258° |
| 2026-05-04 18:29 | 51.14826 | -0.20934 | 215 ft | 11 kts | 262° |
| 2026-05-04 18:29 | 51.14808 | -0.21066 | 208 ft | 13 kts | 256° |
| 2026-05-04 18:30 | 51.14764 | -0.21291 | 206 ft | 9 kts | 257° |
| 2026-05-04 18:30 | 51.14752 | -0.21386 | 212 ft | 8 kts | 259° |
| 2026-05-04 18:30 | 51.14726 | -0.21424 | 204 ft | 6 kts | 187° |
| 2026-05-04 18:31 | 51.14694 | -0.21401 | 214 ft | 0 kts | 149° |
| 2026-05-04 18:36 | 51.14690 | -0.21397 | 213 ft | 3 kts | 149° |
| 2026-05-04 18:36 | 51.14657 | -0.21351 | 216 ft | 8 kts | 134° |
| 2026-05-04 18:37 | 51.14626 | -0.21325 | 206 ft | 0 kts | 165° |
| 2026-05-04 18:40 | 51.14617 | -0.21321 | 209 ft | 0 kts | 165° |
| 2026-05-04 18:40 | 51.14586 | -0.21308 | 208 ft | 16 kts | 162° |
| 2026-05-04 18:40 | 51.14522 | -0.21120 | 205 ft | 21 kts | 79° |
| 2026-05-04 18:40 | 51.14527 | -0.21077 | 210 ft | 0 kts | 78° |
| 2026-05-04 18:41 | 51.14538 | -0.20998 | 211 ft | 36 kts | 77° |
| 2026-05-04 18:41 | 51.14657 | -0.20143 | 216 ft | 119 kts | 77° |
| 2026-05-04 18:42 | 51.14887 | -0.18524 | 293 ft | 174 kts | 77° |
| 2026-05-04 18:42 | 51.15174 | -0.16511 | 820 ft | 190 kts | 77° |
| 2026-05-04 18:42 | 51.15459 | -0.14524 | 1936 ft | 179 kts | 77° |
| 2026-05-04 18:42 | 51.15739 | -0.12529 | 2682 ft | 193 kts | 77° |
| 2026-05-04 18:43 | 51.16039 | -0.10339 | 3205 ft | 212 kts | 77° |
| 2026-05-04 18:43 | 51.16362 | -0.07929 | 3716 ft | 233 kts | 78° |
| 2026-05-04 18:43 | 51.16714 | -0.05282 | 4237 ft | 256 kts | 78° |
| 2026-05-04 18:43 | 51.16895 | -0.02362 | 4921 ft | 271 kts | 91° |
| 2026-05-04 18:44 | 51.16826 | 0.00670 | 5528 ft | 275 kts | 92° |
| 2026-05-04 18:44 | 51.16783 | 0.02693 | 5736 ft | 277 kts | 92° |
| 2026-05-04 18:44 | 51.16705 | 0.06809 | 5963 ft | 278 kts | 91° |
| 2026-05-04 18:44 | 51.16649 | 0.09861 | 6006 ft | 279 kts | 91° |
| 2026-05-04 18:45 | 51.16593 | 0.12943 | 6008 ft | 278 kts | 92° |
| 2026-05-04 18:45 | 51.16537 | 0.16022 | 6008 ft | 278 kts | 91° |
| 2026-05-04 18:45 | 51.16520 | 0.19098 | 6007 ft | 278 kts | 90° |
| 2026-05-04 18:45 | 51.16536 | 0.22180 | 6008 ft | 278 kts | 89° |
| 2026-05-04 18:46 | 51.16556 | 0.25260 | 6005 ft | 278 kts | 89° |
| 2026-05-04 18:46 | 51.16572 | 0.28341 | 6009 ft | 278 kts | 90° |
| 2026-05-04 18:46 | 51.16582 | 0.31417 | 6005 ft | 278 kts | 90° |
| 2026-05-04 18:46 | 51.16588 | 0.34510 | 6006 ft | 278 kts | 90° |
| 2026-05-04 18:47 | 51.16591 | 0.37604 | 6006 ft | 278 kts | 90° |
| 2026-05-04 18:47 | 51.16593 | 0.40627 | 6006 ft | 278 kts | 90° |
| 2026-05-04 18:47 | 51.16594 | 0.43750 | 6006 ft | 278 kts | 90° |
| 2026-05-04 18:47 | 51.16594 | 0.46797 | 6006 ft | 278 kts | 90° |
| 2026-05-04 18:48 | 51.16591 | 0.49874 | 6007 ft | 278 kts | 90° |
| 2026-05-04 18:48 | 51.16549 | 0.52977 | 6200 ft | 281 kts | 92° |
| 2026-05-04 18:48 | 51.16485 | 0.56101 | 6953 ft | 282 kts | 92° |
| 2026-05-04 18:48 | 51.16420 | 0.59211 | 8026 ft | 281 kts | 92° |
| 2026-05-04 18:49 | 51.16358 | 0.62373 | 8438 ft | 290 kts | 92° |
| 2026-05-04 18:49 | 51.16297 | 0.65609 | 8407 ft | 293 kts | 91° |
| 2026-05-04 18:49 | 51.16237 | 0.68845 | 8103 ft | 291 kts | 91° |
| 2026-05-04 18:49 | 51.16177 | 0.72072 | 7659 ft | 292 kts | 91° |
| 2026-05-04 18:50 | 51.16116 | 0.75302 | 7284 ft | 290 kts | 91° |
| 2026-05-04 18:50 | 51.16055 | 0.78479 | 7032 ft | 283 kts | 92° |
| 2026-05-04 18:50 | 51.15995 | 0.81613 | 7013 ft | 285 kts | 92° |
| 2026-05-04 18:50 | 51.15933 | 0.84738 | 7499 ft | 287 kts | 92° |
| 2026-05-04 18:51 | 51.15870 | 0.87903 | 8511 ft | 285 kts | 92° |
| 2026-05-04 18:51 | 51.15805 | 0.91081 | 9454 ft | 289 kts | 92° |
| 2026-05-04 18:51 | 51.15739 | 0.94310 | 10343 ft | 294 kts | 92° |
| 2026-05-04 18:51 | 51.15671 | 0.97584 | 11222 ft | 297 kts | 92° |
| 2026-05-04 18:52 | 51.15601 | 1.00896 | 12061 ft | 302 kts | 92° |
| 2026-05-04 18:52 | 51.15529 | 1.04275 | 12653 ft | 307 kts | 92° |
| 2026-05-04 18:52 | 51.15456 | 1.07672 | 12895 ft | 308 kts | 92° |
| 2026-05-04 18:52 | 51.15381 | 1.11079 | 12991 ft | 308 kts | 92° |
| 2026-05-04 18:53 | 51.15305 | 1.14493 | 13000 ft | 308 kts | 92° |
| 2026-05-04 18:53 | 51.15228 | 1.17905 | 13000 ft | 308 kts | 92° |
| 2026-05-04 18:53 | 51.15150 | 1.21326 | 13000 ft | 308 kts | 92° |
| 2026-05-04 18:53 | 51.15071 | 1.24730 | 13006 ft | 308 kts | 92° |
| 2026-05-04 18:54 | 51.14992 | 1.28116 | 13232 ft | 311 kts | 92° |
| 2026-05-04 18:54 | 51.14910 | 1.31565 | 14002 ft | 312 kts | 92° |
| 2026-05-04 18:54 | 51.14825 | 1.35125 | 14859 ft | 314 kts | 92° |
| 2026-05-04 18:54 | 51.14742 | 1.38531 | 15596 ft | 318 kts | 92° |
| 2026-05-04 18:55 | 51.14655 | 1.42069 | 16342 ft | 321 kts | 92° |
| 2026-05-04 18:55 | 51.14475 | 1.49262 | 17749 ft | 329 kts | 92° |
| 2026-05-04 18:55 | 51.14382 | 1.52924 | 18429 ft | 332 kts | 92° |
| 2026-05-04 18:56 | 51.14286 | 1.56614 | 19092 ft | 336 kts | 92° |
| 2026-05-04 18:56 | 51.14189 | 1.60347 | 19739 ft | 339 kts | 92° |
| 2026-05-04 18:56 | 51.14089 | 1.64116 | 20367 ft | 342 kts | 92° |
| 2026-05-04 18:56 | 51.13987 | 1.67922 | 20985 ft | 346 kts | 92° |
| 2026-05-04 18:57 | 51.13883 | 1.71765 | 21582 ft | 349 kts | 92° |
| 2026-05-04 18:57 | 51.13776 | 1.75644 | 22161 ft | 352 kts | 92° |
| 2026-05-04 18:57 | 51.13667 | 1.79560 | 22699 ft | 356 kts | 92° |
| 2026-05-04 18:57 | 51.13556 | 1.83511 | 22926 ft | 358 kts | 92° |
| 2026-05-04 18:58 | 51.13444 | 1.87468 | 22996 ft | 358 kts | 92° |
| 2026-05-04 18:58 | 51.13330 | 1.91431 | 23000 ft | 358 kts | 92° |
| 2026-05-04 18:58 | 51.13216 | 1.95333 | 23000 ft | 358 kts | 92° |
| 2026-05-04 18:58 | 51.13139 | 1.97974 | 23000 ft | 358 kts | 92° |
| 2026-05-04 18:59 | 51.12887 | 2.03285 | 23129 ft | 366 kts | 95° |
| 2026-05-04 18:59 | 51.12663 | 2.07423 | 23273 ft | 382 kts | 95° |
| 2026-05-04 18:59 | 51.12442 | 2.11713 | 23419 ft | 397 kts | 95° |
| 2026-05-04 18:59 | 51.12213 | 2.16129 | 23567 ft | 411 kts | 95° |
| 2026-05-04 19:00 | 51.11970 | 2.20701 | 23954 ft | 417 kts | 95° |
| 2026-05-04 19:00 | 51.11722 | 2.25305 | 24487 ft | 419 kts | 95° |
| 2026-05-04 19:00 | 51.11468 | 2.29945 | 24981 ft | 423 kts | 95° |
| 2026-05-04 19:00 | 51.11209 | 2.34629 | 25457 ft | 426 kts | 95° |
| 2026-05-04 19:01 | 51.10947 | 2.39340 | 25848 ft | 429 kts | 95° |
| 2026-05-04 19:01 | 51.10682 | 2.44070 | 25979 ft | 430 kts | 95° |
| 2026-05-04 19:01 | 51.10413 | 2.48816 | 26000 ft | 430 kts | 95° |
| 2026-05-04 19:01 | 51.10144 | 2.53552 | 26000 ft | 430 kts | 95° |
| 2026-05-04 19:02 | 51.09872 | 2.58287 | 26000 ft | 430 kts | 95° |
| 2026-05-04 19:02 | 51.09584 | 2.62994 | 26000 ft | 430 kts | 97° |
| 2026-05-04 19:02 | 51.09028 | 2.67662 | 26000 ft | 430 kts | 104° |
| 2026-05-04 19:02 | 51.08476 | 2.70744 | 26001 ft | 430 kts | 107° |
| 2026-05-04 19:03 | 51.07372 | 2.76780 | 26000 ft | 430 kts | 106° |
| 2026-05-04 19:03 | 51.06811 | 2.79875 | 26000 ft | 430 kts | 106° |
| 2026-05-04 19:03 | 51.05985 | 2.84432 | 26001 ft | 430 kts | 106° |
| 2026-05-04 19:03 | 51.05155 | 2.89004 | 26000 ft | 430 kts | 106° |
| 2026-05-04 19:04 | 51.04325 | 2.93557 | 26000 ft | 430 kts | 106° |
| 2026-05-04 19:04 | 51.03495 | 2.98094 | 26000 ft | 430 kts | 106° |
| 2026-05-04 19:04 | 51.02655 | 3.02679 | 26000 ft | 430 kts | 106° |
| 2026-05-04 19:04 | 51.01828 | 3.07177 | 26000 ft | 430 kts | 106° |
| 2026-05-04 19:05 | 51.00991 | 3.11718 | 26001 ft | 430 kts | 106° |
| 2026-05-04 19:05 | 51.00149 | 3.16274 | 26000 ft | 430 kts | 107° |
| 2026-05-04 19:05 | 50.99305 | 3.20833 | 26001 ft | 430 kts | 107° |
| 2026-05-04 19:05 | 50.98460 | 3.25386 | 26000 ft | 430 kts | 107° |
| 2026-05-04 19:06 | 50.97615 | 3.29926 | 26000 ft | 430 kts | 107° |
| 2026-05-04 19:06 | 50.96767 | 3.34472 | 26000 ft | 430 kts | 107° |
| 2026-05-04 19:06 | 50.95916 | 3.39017 | 26000 ft | 430 kts | 107° |
| 2026-05-04 19:06 | 50.95065 | 3.43557 | 26000 ft | 430 kts | 107° |
| 2026-05-04 19:07 | 50.94211 | 3.48101 | 26000 ft | 430 kts | 107° |
| 2026-05-04 19:07 | 50.93356 | 3.52640 | 26000 ft | 430 kts | 107° |
| 2026-05-04 19:07 | 50.92498 | 3.57183 | 26000 ft | 430 kts | 107° |
| 2026-05-04 19:07 | 50.91639 | 3.61721 | 26000 ft | 430 kts | 107° |
| 2026-05-04 19:08 | 50.90778 | 3.66254 | 26000 ft | 430 kts | 107° |
| 2026-05-04 19:08 | 50.89909 | 3.70780 | 26000 ft | 430 kts | 107° |
| 2026-05-04 19:08 | 50.89036 | 3.75301 | 26000 ft | 430 kts | 107° |
| 2026-05-04 19:08 | 50.88159 | 3.79830 | 26000 ft | 430 kts | 107° |
| 2026-05-04 19:09 | 50.87282 | 3.84357 | 26001 ft | 430 kts | 107° |
| 2026-05-04 19:09 | 50.86415 | 3.88823 | 26000 ft | 430 kts | 107° |
| 2026-05-04 19:09 | 50.85535 | 3.93348 | 26000 ft | 430 kts | 107° |
| 2026-05-04 19:09 | 50.84653 | 3.97872 | 26000 ft | 430 kts | 107° |
| 2026-05-04 19:10 | 50.83772 | 4.02379 | 26001 ft | 430 kts | 107° |
| 2026-05-04 19:10 | 50.82887 | 4.06896 | 26000 ft | 430 kts | 107° |
| 2026-05-04 19:10 | 50.82000 | 4.11411 | 26000 ft | 430 kts | 107° |
| 2026-05-04 19:10 | 50.81112 | 4.15923 | 26000 ft | 430 kts | 107° |
| 2026-05-04 19:11 | 50.80221 | 4.20440 | 26000 ft | 430 kts | 107° |
| 2026-05-04 19:11 | 50.79328 | 4.24956 | 26000 ft | 430 kts | 107° |
| 2026-05-04 19:11 | 50.78436 | 4.29458 | 26000 ft | 430 kts | 108° |
| 2026-05-04 19:11 | 50.77541 | 4.33963 | 26000 ft | 430 kts | 108° |
| 2026-05-04 19:12 | 50.76643 | 4.38474 | 26001 ft | 430 kts | 108° |
| 2026-05-04 19:12 | 50.74842 | 4.47488 | 26000 ft | 430 kts | 108° |
| 2026-05-04 19:12 | 50.73940 | 4.51987 | 26000 ft | 430 kts | 108° |
| 2026-05-04 19:13 | 50.73036 | 4.56484 | 26000 ft | 430 kts | 108° |
| 2026-05-04 19:13 | 50.72130 | 4.60988 | 26000 ft | 430 kts | 108° |
| 2026-05-04 19:13 | 50.71243 | 4.65497 | 26001 ft | 430 kts | 107° |
| 2026-05-04 19:13 | 50.70375 | 4.70008 | 26000 ft | 430 kts | 107° |
| 2026-05-04 19:14 | 50.69507 | 4.74522 | 26000 ft | 430 kts | 107° |
| 2026-05-04 19:14 | 50.68633 | 4.79042 | 26000 ft | 430 kts | 107° |
| 2026-05-04 19:14 | 50.67756 | 4.83559 | 26000 ft | 430 kts | 107° |
| 2026-05-04 19:14 | 50.66889 | 4.88000 | 26000 ft | 430 kts | 107° |
| 2026-05-04 19:15 | 50.66007 | 4.92502 | 26000 ft | 430 kts | 107° |
| 2026-05-04 19:15 | 50.65100 | 4.97001 | 26000 ft | 430 kts | 108° |
| 2026-05-04 19:15 | 50.64174 | 5.01491 | 26001 ft | 430 kts | 108° |
| 2026-05-04 19:15 | 50.63247 | 5.05964 | 26000 ft | 430 kts | 108° |
| 2026-05-04 19:16 | 50.62319 | 5.10445 | 26001 ft | 430 kts | 108° |
| 2026-05-04 19:16 | 50.61391 | 5.14928 | 26000 ft | 430 kts | 108° |
| 2026-05-04 19:16 | 50.60464 | 5.19406 | 26000 ft | 430 kts | 108° |
| 2026-05-04 19:16 | 50.59534 | 5.23887 | 26001 ft | 431 kts | 108° |
| 2026-05-04 19:17 | 50.58602 | 5.28376 | 26001 ft | 431 kts | 108° |
| 2026-05-04 19:17 | 50.57670 | 5.32851 | 26000 ft | 431 kts | 108° |
| 2026-05-04 19:17 | 50.56737 | 5.37321 | 26000 ft | 430 kts | 108° |
| 2026-05-04 19:17 | 50.55801 | 5.41796 | 26000 ft | 431 kts | 108° |
| 2026-05-04 19:18 | 50.54863 | 5.46271 | 26000 ft | 431 kts | 108° |
| 2026-05-04 19:18 | 50.53923 | 5.50742 | 26001 ft | 431 kts | 108° |
| 2026-05-04 19:18 | 50.52998 | 5.55158 | 25999 ft | 430 kts | 107° |
| 2026-05-04 19:18 | 50.52453 | 5.59766 | 25987 ft | 428 kts | 93° |
| 2026-05-04 19:19 | 50.52633 | 5.64371 | 25918 ft | 419 kts | 78° |
| 2026-05-04 19:19 | 50.53530 | 5.68641 | 25801 ft | 406 kts | 63° |
| 2026-05-04 19:19 | 50.54857 | 5.72489 | 25673 ft | 393 kts | 60° |
| 2026-05-04 19:19 | 50.56150 | 5.76189 | 25557 ft | 379 kts | 61° |
| 2026-05-04 19:20 | 50.57389 | 5.79781 | 25321 ft | 370 kts | 61° |
| 2026-05-04 19:20 | 50.58603 | 5.83334 | 24846 ft | 368 kts | 61° |
| 2026-05-04 19:20 | 50.59801 | 5.86869 | 24398 ft | 365 kts | 62° |
| 2026-05-04 19:20 | 50.60991 | 5.90390 | 23936 ft | 363 kts | 62° |
| 2026-05-04 19:21 | 50.62169 | 5.93887 | 23491 ft | 361 kts | 62° |
| 2026-05-04 19:21 | 50.63342 | 5.97373 | 23048 ft | 358 kts | 62° |
| 2026-05-04 19:21 | 50.64502 | 6.00825 | 22609 ft | 356 kts | 62° |
| 2026-05-04 19:21 | 50.65644 | 6.04227 | 22413 ft | 346 kts | 62° |
| 2026-05-04 19:22 | 50.66747 | 6.07519 | 22301 ft | 333 kts | 62° |
| 2026-05-04 19:22 | 50.67809 | 6.10693 | 22193 ft | 321 kts | 62° |
| 2026-05-04 19:22 | 50.68821 | 6.13720 | 22018 ft | 313 kts | 62° |
| 2026-05-04 19:22 | 50.69835 | 6.16745 | 21650 ft | 310 kts | 62° |
| 2026-05-04 19:23 | 50.70844 | 6.19745 | 21269 ft | 309 kts | 62° |
| 2026-05-04 19:23 | 50.71851 | 6.22740 | 20894 ft | 307 kts | 62° |
| 2026-05-04 19:23 | 50.72738 | 6.25795 | 20512 ft | 306 kts | 68° |
| 2026-05-04 19:23 | 50.73516 | 6.28904 | 20150 ft | 304 kts | 68° |
| 2026-05-04 19:24 | 50.74297 | 6.31992 | 19775 ft | 302 kts | 68° |
| 2026-05-04 19:24 | 50.75077 | 6.35065 | 19413 ft | 300 kts | 68° |
| 2026-05-04 19:24 | 50.75850 | 6.38118 | 19040 ft | 299 kts | 68° |
| 2026-05-04 19:24 | 50.76621 | 6.41163 | 18684 ft | 297 kts | 68° |
| 2026-05-04 19:25 | 50.77372 | 6.44139 | 18335 ft | 295 kts | 68° |
| 2026-05-04 19:25 | 50.78127 | 6.47136 | 17971 ft | 293 kts | 68° |
| 2026-05-04 19:25 | 50.78879 | 6.50122 | 17610 ft | 292 kts | 68° |
| 2026-05-04 19:25 | 50.79626 | 6.53093 | 17252 ft | 290 kts | 68° |
| 2026-05-04 19:26 | 50.80368 | 6.56049 | 16896 ft | 288 kts | 68° |
| 2026-05-04 19:26 | 50.81104 | 6.58985 | 16536 ft | 287 kts | 68° |
| 2026-05-04 19:26 | 50.81986 | 6.61792 | 16151 ft | 284 kts | 50° |
| 2026-05-04 19:26 | 50.83481 | 6.63762 | 15759 ft | 281 kts | 24° |
| 2026-05-04 19:27 | 50.85350 | 6.64557 | 15369 ft | 278 kts | 7° |
| 2026-05-04 19:27 | 50.87264 | 6.64920 | 15018 ft | 276 kts | 5° |
| 2026-05-04 19:27 | 50.89168 | 6.65235 | 14671 ft | 274 kts | 5° |
| 2026-05-04 19:27 | 50.91060 | 6.65572 | 14320 ft | 273 kts | 6° |
| 2026-05-04 19:28 | 50.92938 | 6.65939 | 13969 ft | 272 kts | 6° |
| 2026-05-04 19:28 | 50.94806 | 6.66325 | 13621 ft | 270 kts | 6° |
| 2026-05-04 19:28 | 50.96662 | 6.66719 | 13279 ft | 268 kts | 6° |
| 2026-05-04 19:28 | 50.98512 | 6.67117 | 12924 ft | 267 kts | 6° |
| 2026-05-04 19:29 | 51.00330 | 6.67508 | 12585 ft | 266 kts | 6° |
| 2026-05-04 19:29 | 51.02161 | 6.67871 | 12238 ft | 264 kts | 2° |
| 2026-05-04 19:29 | 51.03991 | 6.67814 | 11886 ft | 262 kts | 355° |
| 2026-05-04 19:29 | 51.05812 | 6.67646 | 11544 ft | 261 kts | 355° |
| 2026-05-04 19:30 | 51.07619 | 6.67494 | 11198 ft | 259 kts | 356° |
| 2026-05-04 19:30 | 51.09406 | 6.67354 | 11032 ft | 256 kts | 358° |
| 2026-05-04 19:30 | 51.11199 | 6.67584 | 10999 ft | 261 kts | 12° |
| 2026-05-04 19:30 | 51.12795 | 6.68829 | 11001 ft | 262 kts | 41° |
| 2026-05-04 19:31 | 51.13978 | 6.71048 | 11000 ft | 264 kts | 53° |
| 2026-05-04 19:31 | 51.15067 | 6.73394 | 11000 ft | 263 kts | 53° |
| 2026-05-04 19:31 | 51.16152 | 6.75740 | 11000 ft | 263 kts | 53° |
| 2026-05-04 19:31 | 51.17234 | 6.78079 | 10908 ft | 261 kts | 53° |
| 2026-05-04 19:32 | 51.18310 | 6.80406 | 10620 ft | 261 kts | 53° |
| 2026-05-04 19:32 | 51.19382 | 6.82727 | 10291 ft | 260 kts | 53° |
| 2026-05-04 19:32 | 51.20452 | 6.85043 | 9959 ft | 259 kts | 53° |
| 2026-05-04 19:32 | 51.21514 | 6.87347 | 9606 ft | 258 kts | 53° |
| 2026-05-04 19:33 | 51.22577 | 6.89651 | 9284 ft | 256 kts | 53° |
| 2026-05-04 19:33 | 51.23629 | 6.91935 | 8954 ft | 255 kts | 53° |
| 2026-05-04 19:33 | 51.24671 | 6.94201 | 8627 ft | 254 kts | 53° |
| 2026-05-04 19:33 | 51.25717 | 6.96475 | 8297 ft | 253 kts | 53° |
| 2026-05-04 19:34 | 51.26757 | 6.98736 | 7977 ft | 252 kts | 53° |
| 2026-05-04 19:34 | 51.27790 | 7.00985 | 7660 ft | 251 kts | 53° |
| 2026-05-04 19:34 | 51.28820 | 7.03229 | 7351 ft | 250 kts | 53° |
| 2026-05-04 19:34 | 51.29842 | 7.05460 | 7076 ft | 247 kts | 53° |
| 2026-05-04 19:35 | 51.30858 | 7.07674 | 7003 ft | 249 kts | 53° |
| 2026-05-04 19:35 | 51.31883 | 7.09910 | 7002 ft | 249 kts | 53° |
| 2026-05-04 19:35 | 51.32903 | 7.12138 | 7002 ft | 249 kts | 53° |
| 2026-05-04 19:35 | 51.33926 | 7.14373 | 7005 ft | 249 kts | 53° |
| 2026-05-04 19:36 | 51.34949 | 7.16608 | 6997 ft | 249 kts | 53° |
| 2026-05-04 19:36 | 51.35956 | 7.18809 | 7000 ft | 248 kts | 53° |
| 2026-05-04 19:36 | 51.36977 | 7.21043 | 7001 ft | 249 kts | 53° |
| 2026-05-04 19:36 | 51.37996 | 7.23275 | 6993 ft | 248 kts | 53° |
| 2026-05-04 19:37 | 51.39011 | 7.25496 | 6852 ft | 246 kts | 53° |
| 2026-05-04 19:37 | 51.40021 | 7.27708 | 6563 ft | 246 kts | 53° |
| 2026-05-04 19:37 | 51.41033 | 7.29926 | 6254 ft | 245 kts | 53° |
| 2026-05-04 19:37 | 51.42039 | 7.32134 | 5949 ft | 245 kts | 53° |
| 2026-05-04 19:38 | 51.43192 | 7.34092 | 5625 ft | 242 kts | 30° |
| 2026-05-04 19:38 | 51.44765 | 7.34903 | 5280 ft | 238 kts | 359° |
| 2026-05-04 19:38 | 51.46318 | 7.34329 | 5079 ft | 232 kts | 334° |
| 2026-05-04 19:38 | 51.47793 | 7.33200 | 5038 ft | 232 kts | 330° |
| 2026-05-04 19:39 | 51.48920 | 7.31530 | 4992 ft | 218 kts | 298° |
| 2026-05-04 19:39 | 51.49303 | 7.29184 | 4628 ft | 221 kts | 267° |
| 2026-05-04 19:39 | 51.49153 | 7.26687 | 4182 ft | 228 kts | 263° |
| 2026-05-04 19:39 | 51.48965 | 7.24146 | 3864 ft | 228 kts | 263° |
| 2026-05-04 19:40 | 51.48778 | 7.21621 | 3577 ft | 227 kts | 263° |
| 2026-05-04 19:40 | 51.48589 | 7.19113 | 3306 ft | 226 kts | 263° |
| 2026-05-04 19:40 | 51.48294 | 7.16659 | 3062 ft | 223 kts | 243° |
| 2026-05-04 19:40 | 51.47376 | 7.14626 | 3034 ft | 229 kts | 230° |
| 2026-05-04 19:41 | 51.46362 | 7.12713 | 3033 ft | 226 kts | 231° |
| 2026-05-04 19:41 | 51.45384 | 7.10745 | 3033 ft | 226 kts | 233° |
| 2026-05-04 19:41 | 51.44431 | 7.08734 | 3035 ft | 227 kts | 233° |
| 2026-05-04 19:41 | 51.43480 | 7.06722 | 3034 ft | 226 kts | 233° |
| 2026-05-04 19:42 | 51.42529 | 7.04711 | 3034 ft | 226 kts | 233° |
| 2026-05-04 19:42 | 51.41575 | 7.02693 | 3035 ft | 227 kts | 233° |
| 2026-05-04 19:42 | 51.40631 | 7.00698 | 3033 ft | 218 kts | 233° |
| 2026-05-04 19:42 | 51.39749 | 6.98836 | 3055 ft | 199 kts | 233° |
| 2026-05-04 19:43 | 51.38954 | 6.97158 | 3026 ft | 179 kts | 233° |
| 2026-05-04 19:43 | 51.38221 | 6.95610 | 2901 ft | 175 kts | 233° |
| 2026-05-04 19:43 | 51.37486 | 6.94061 | 2664 ft | 173 kts | 233° |
| 2026-05-04 19:43 | 51.36760 | 6.92527 | 2424 ft | 172 kts | 234° |
| 2026-05-04 19:44 | 51.36039 | 6.91008 | 2199 ft | 170 kts | 233° |
| 2026-05-04 19:44 | 51.35335 | 6.89520 | 1977 ft | 171 kts | 234° |
| 2026-05-04 19:44 | 51.34612 | 6.88001 | 1749 ft | 171 kts | 233° |
| 2026-05-04 19:44 | 51.33898 | 6.86487 | 1519 ft | 169 kts | 234° |
| 2026-05-04 19:45 | 51.33207 | 6.85041 | 1297 ft | 157 kts | 233° |
| 2026-05-04 19:45 | 51.32574 | 6.83695 | 1091 ft | 146 kts | 234° |
| 2026-05-04 19:45 | 51.31989 | 6.82479 | 915 ft | 131 kts | 232° |
| 2026-05-04 19:45 | 51.31426 | 6.81290 | 737 ft | 134 kts | 233° |
| 2026-05-04 19:46 | 51.30869 | 6.80104 | 561 ft | 132 kts | 233° |
| 2026-05-04 19:46 | 51.30305 | 6.78932 | 385 ft | 134 kts | 233° |
| 2026-05-04 19:46 | 51.29741 | 6.77748 | 176 ft | 132 kts | 233° |
| 2026-05-04 19:46 | 51.29201 | 6.76616 | 124 ft | 119 kts | 232° |
| 2026-05-04 19:47 | 51.28818 | 6.75816 | 127 ft | 52 kts | 233° |
| 2026-05-04 19:47 | 51.28607 | 6.75381 | 127 ft | 47 kts | 234° |
| 2026-05-04 19:47 | 51.28438 | 6.75022 | 122 ft | 26 kts | 231° |
| 2026-05-04 19:47 | 51.28282 | 6.74996 | 122 ft | 24 kts | 156° |
| 2026-05-04 19:48 | 51.28137 | 6.75115 | 124 ft | 21 kts | 153° |
| 2026-05-04 19:48 | 51.28116 | 6.75132 | 123 ft | 5 kts | 153° |
| 2026-05-04 19:48 | 51.28072 | 6.75166 | 124 ft | 0 kts | 153° |
| 2026-05-04 19:48 | 51.28056 | 6.75179 | 123 ft | 5 kts | 153° |
| 2026-05-04 19:49 | 51.28049 | 6.75184 | 123 ft | 0 kts | 153° |
| 2026-05-04 19:49 | 51.28028 | 6.75202 | 124 ft | 12 kts | 153° |
| 2026-05-04 19:50 | 51.27923 | 6.75287 | 125 ft | 17 kts | 153° |
| 2026-05-04 19:50 | 51.27870 | 6.75328 | 123 ft | 0 kts | 153° |
| 2026-05-04 19:53 | 51.27870 | 6.75329 | 123 ft | 1 kts | 153° |
| 2026-05-04 19:53 | 51.27837 | 6.75377 | 125 ft | 13 kts | 108° |
| 2026-05-04 19:53 | 51.27899 | 6.75536 | 126 ft | 21 kts | 51° |
| 2026-05-04 19:53 | 51.28006 | 6.75758 | 129 ft | 27 kts | 52° |
| 2026-05-04 19:54 | 51.28104 | 6.75973 | 131 ft | 14 kts | 65° |
| 2026-05-04 19:54 | 51.28077 | 6.76046 | 131 ft | 0 kts | 156° |
| 2026-05-04 19:54 | 51.28075 | 6.76047 | 131 ft | 0 kts | 156° |
| 2026-05-04 19:54 | 51.28066 | 6.76062 | 128 ft | 5 kts | 129° |
| 2026-05-04 19:55 | 51.28013 | 6.76121 | 131 ft | 13 kts | 148° |
| 2026-05-04 19:55 | 51.28001 | 6.76157 | 128 ft | 0 kts | 107° |